Time;durP1;ratioP1;P1;durP2;ratioP2;P2;SDS_P1;SDS_P2;PMS_P1;PMS_P2;Temp;Humidity;BMP_temperature;BMP_pressure;BME280_temperature;BME280_humidity;BME280_pressure;Samples;Min_cycle;Max_cycle;Signal;HPM_P1;HPM_P2
2021/12/09 00:01:03;;;;;;;33.10;16.95;;;6.10;99.50;;;;;;5092877;28;20035;-53
2021/12/09 00:03:32;;;;;;;41.17;22.52;;;6.10;99.90;;;;;;5093129;28;20024;-57
2021/12/09 00:05:58;;;;;;;36.22;18.85;;;5.90;99.50;;;;;;5093360;28;20381;-56
2021/12/09 00:08:27;;;;;;;27.50;14.63;;;5.80;99.90;;;;;;5093409;28;20423;-56
2021/12/09 00:10:55;;;;;;;28.17;14.93;;;5.90;99.90;;;;;;5093343;28;20031;-55
2021/12/09 00:13:21;;;;;;;23.98;13.18;;;5.90;99.90;;;;;;5092790;28;20020;-56
2021/12/09 00:15:47;;;;;;;27.45;14.35;;;5.90;99.90;;;;;;5093042;28;20032;-56
2021/12/09 00:18:13;;;;;;;25.38;14.35;;;5.90;99.90;;;;;;5094768;28;20023;-57
2021/12/09 00:20:39;;;;;;;31.98;17.98;;;5.90;99.90;;;;;;5097174;28;20036;-57
2021/12/09 00:23:07;;;;;;;32.08;16.52;;;5.90;99.90;;;;;;5097041;28;20457;-56
2021/12/09 00:25:33;;;;;;;30.05;16.00;;;5.90;99.90;;;;;;5096902;28;20530;-57
2021/12/09 00:27:59;;;;;;;29.92;15.43;;;5.90;99.90;;;;;;5096611;28;20020;-57
2021/12/09 00:30:25;;;;;;;27.80;14.38;;;5.90;99.90;;;;;;5096658;28;20107;-56
2021/12/09 00:32:51;;;;;;;26.30;14.07;;;6.00;99.90;;;;;;5096719;28;20107;-58
2021/12/09 00:35:17;;;;;;;25.50;14.07;;;6.00;99.90;;;;;;5096357;28;20043;-56
2021/12/09 00:37:55;;;;;;;24.83;13.55;;;6.00;99.90;;;;;;5096557;28;20028;-57
2021/12/09 00:40:21;;;;;;;26.58;13.52;;;6.00;99.90;;;;;;5096971;28;20404;-57
2021/12/09 00:42:47;;;;;;;32.28;18.23;;;5.90;99.90;;;;;;5096247;28;20020;-58
2021/12/09 00:45:13;;;;;;;25.88;13.77;;;5.90;99.90;;;;;;5096425;28;20038;-54
2021/12/09 00:47:38;;;;;;;26.42;13.70;;;5.80;99.90;;;;;;5096722;28;20028;-57
2021/12/09 00:50:05;;;;;;;22.15;12.45;;;5.80;99.90;;;;;;5096425;28;20020;-57
2021/12/09 00:52:30;;;;;;;18.38;10.05;;;5.90;99.90;;;;;;5096161;28;20492;-57
2021/12/09 00:54:57;;;;;;;21.17;11.18;;;5.90;99.90;;;;;;5096281;28;20102;-56
2021/12/09 00:57:24;;;;;;;27.35;12.90;;;6.00;99.90;;;;;;5096018;28;20056;-56
2021/12/09 00:59:49;;;;;;;27.40;13.93;;;6.10;99.90;;;;;;5096166;28;20553;-56
2021/12/09 01:02:15;;;;;;;26.20;12.48;;;6.10;99.90;;;;;;5096426;28;20051;-58
2021/12/09 01:04:43;;;;;;;33.22;14.52;;;6.10;99.90;;;;;;5096100;28;20458;-57
2021/12/09 01:07:09;;;;;;;23.50;10.65;;;6.20;99.90;;;;;;5096024;28;20474;-56
2021/12/09 01:09:36;;;;;;;43.92;17.70;;;6.20;99.90;;;;;;5095965;28;20024;-57
2021/12/09 01:12:03;;;;;;;42.50;18.30;;;6.20;99.90;;;;;;5095853;28;20457;-58
2021/12/09 01:14:29;;;;;;;49.95;21.25;;;6.20;99.90;;;;;;5096091;28;20107;-57
2021/12/09 01:16:54;;;;;;;52.38;23.85;;;6.20;99.90;;;;;;5096055;28;20111;-54
2021/12/09 01:19:20;;;;;;;43.38;22.10;;;6.30;99.90;;;;;;5094541;28;20115;-57
2021/12/09 01:21:46;;;;;;;54.15;25.00;;;6.30;99.90;;;;;;5096042;28;20020;-55
2021/12/09 01:24:11;;;;;;;94.07;34.05;;;6.30;99.90;;;;;;5095669;28;20048;-57
2021/12/09 01:26:37;;;;;;;56.75;24.67;;;6.30;99.90;;;;;;5095755;28;20073;-57
2021/12/09 01:29:12;;;;;;;55.50;22.83;;;6.30;99.90;;;;;;5095502;28;20020;-56
2021/12/09 01:31:39;;;;;;;38.10;17.45;;;6.30;99.90;;;;;;5095617;28;20024;-57
2021/12/09 01:34:07;;;;;;;19.30;10.55;;;6.40;99.90;;;;;;5095541;28;20505;-57
2021/12/09 01:36:36;;;;;;;20.45;12.38;;;6.50;99.90;;;;;;5095203;28;20094;-57
2021/12/09 01:39:04;;;;;;;14.15;8.88;;;6.50;99.90;;;;;;5095400;28;20028;-56
2021/12/09 01:41:30;;;;;;;12.80;7.97;;;6.50;99.90;;;;;;5095175;28;20497;-57
2021/12/09 01:43:56;;;;;;;19.58;10.60;;;6.60;99.90;;;;;;5095820;28;20103;-58
2021/12/09 01:46:22;;;;;;;17.58;10.80;;;6.60;99.90;;;;;;5095553;28;20028;-56
2021/12/09 01:48:49;;;;;;;26.83;15.27;;;6.60;99.90;;;;;;5095306;28;20378;-56
2021/12/09 01:51:16;;;;;;;33.08;16.92;;;6.50;99.90;;;;;;5095412;28;20024;-57
2021/12/09 01:53:42;;;;;;;37.83;18.38;;;6.50;99.90;;;;;;5095170;28;20020;-56
2021/12/09 01:56:13;;;;;;;17.85;10.73;;;6.40;99.90;;;;;;5095070;28;20032;-57
2021/12/09 01:58:39;;;;;;;14.85;8.20;;;6.30;99.90;;;;;;5095285;28;20040;-56
2021/12/09 02:01:06;;;;;;;15.05;9.80;;;6.30;99.90;;;;;;5095002;28;20181;-55
2021/12/09 02:03:33;;;;;;;16.33;8.60;;;6.30;99.90;;;;;;5094965;28;20024;-58
2021/12/09 02:05:59;;;;;;;21.35;10.02;;;6.30;99.90;;;;;;5094910;28;20027;-54
2021/12/09 02:08:25;;;;;;;15.70;9.38;;;6.50;99.90;;;;;;5095269;28;20491;-55
2021/12/09 02:10:52;;;;;;;14.43;8.43;;;6.50;99.90;;;;;;5094938;28;20412;-56
2021/12/09 02:13:19;;;;;;;15.40;7.90;;;6.50;99.90;;;;;;5094995;28;20065;-57
2021/12/09 02:15:46;;;;;;;18.58;9.63;;;6.60;99.90;;;;;;5094657;28;20551;-56
2021/12/09 02:18:14;;;;;;;15.93;8.23;;;6.60;99.90;;;;;;5094659;28;20027;-57
2021/12/09 02:20:41;;;;;;;13.38;7.53;;;6.60;99.90;;;;;;5094873;28;20031;-55
2021/12/09 02:23:11;;;;;;;20.90;10.35;;;6.60;99.90;;;;;;5094776;28;20093;-55
2021/12/09 02:25:44;;;;;;;19.58;9.77;;;6.60;99.90;;;;;;5094633;28;20147;-56
2021/12/09 02:28:11;;;;;;;16.93;9.97;;;6.70;99.90;;;;;;5094740;28;20466;-57
2021/12/09 02:30:38;;;;;;;10.10;6.00;;;6.60;99.90;;;;;;5094572;28;20020;-58
2021/12/09 02:33:03;;;;;;;11.23;6.57;;;6.60;99.90;;;;;;5094536;28;20097;-56
2021/12/09 02:35:29;;;;;;;7.63;4.47;;;6.80;99.90;;;;;;5094101;28;20079;-58
2021/12/09 02:37:55;;;;;;;7.85;4.75;;;6.90;99.90;;;;;;5094289;28;20052;-57
2021/12/09 02:40:21;;;;;;;10.25;5.07;;;7.10;99.90;;;;;;5093661;28;20055;-57
2021/12/09 02:42:47;;;;;;;10.75;6.97;;;7.10;99.90;;;;;;5094205;28;20470;-56
2021/12/09 02:45:13;;;;;;;19.85;11.30;;;7.20;99.90;;;;;;5094247;28;20028;-55
2021/12/09 02:47:39;;;;;;;29.15;15.55;;;7.20;99.90;;;;;;5094118;28;20034;-55
2021/12/09 02:50:06;;;;;;;21.33;12.70;;;7.10;99.90;;;;;;5094318;28;20408;-58
2021/12/09 02:52:32;;;;;;;20.75;12.20;;;6.90;99.90;;;;;;5093942;28;20115;-55
2021/12/09 02:54:58;;;;;;;17.73;12.15;;;6.90;99.90;;;;;;5094077;28;20099;-55
2021/12/09 02:57:24;;;;;;;27.67;15.35;;;6.90;99.90;;;;;;5094185;28;20051;-55
2021/12/09 02:59:50;;;;;;;28.92;17.20;;;6.80;99.90;;;;;;5094146;28;20048;-56
2021/12/09 03:02:16;;;;;;;27.20;16.10;;;6.70;99.90;;;;;;5094119;28;20044;-57
2021/12/09 03:04:56;;;;;;;26.00;15.88;;;6.60;99.90;;;;;;5094235;28;20089;-58
2021/12/09 03:07:28;;;;;;;22.55;14.02;;;6.60;99.90;;;;;;5093971;28;20031;-58
2021/12/09 03:09:59;;;;;;;24.88;15.73;;;6.60;99.90;;;;;;5093529;28;20543;-55
2021/12/09 03:12:34;;;;;;;20.65;12.75;;;6.60;99.90;;;;;;5093931;28;20028;-55
2021/12/09 03:15:04;;;;;;;28.23;18.02;;;6.60;99.90;;;;;;5093758;28;20394;-55
2021/12/09 03:17:30;;;;;;;22.95;13.55;;;6.50;99.90;;;;;;5093481;28;20024;-57
2021/12/09 03:19:56;;;;;;;25.27;14.77;;;6.60;99.90;;;;;;5093503;28;20051;-56
2021/12/09 03:22:22;;;;;;;18.85;12.00;;;6.60;99.90;;;;;;5093667;28;20016;-58
2021/12/09 03:24:48;;;;;;;18.90;11.68;;;6.60;99.90;;;;;;5093603;28;20024;-56
2021/12/09 03:27:14;;;;;;;22.95;13.75;;;6.60;99.90;;;;;;5093686;28;20039;-57
2021/12/09 03:29:40;;;;;;;34.88;18.98;;;6.60;99.90;;;;;;5093457;28;20066;-57
2021/12/09 03:32:12;;;;;;;30.90;17.25;;;6.40;99.90;;;;;;5093744;28;20067;-56
2021/12/09 03:34:39;;;;;;;27.60;15.40;;;6.20;99.90;;;;;;5093339;28;20028;-55
2021/12/09 03:37:12;;;;;;;25.77;15.38;;;6.10;99.90;;;;;;5093238;28;20047;-56
2021/12/09 03:39:41;;;;;;;21.43;14.00;;;5.90;99.90;;;;;;5093616;28;20355;-58
2021/12/09 03:42:10;;;;;;;22.63;13.27;;;5.90;99.90;;;;;;5093666;28;20237;-56
2021/12/09 03:44:37;;;;;;;30.50;17.60;;;5.90;99.90;;;;;;5093648;28;20024;-57
2021/12/09 03:47:06;;;;;;;29.90;16.52;;;5.90;99.90;;;;;;5093212;28;20028;-56
2021/12/09 03:49:32;;;;;;;29.95;17.48;;;5.90;99.90;;;;;;5093331;28;20385;-58
2021/12/09 03:51:57;;;;;;;36.35;19.10;;;5.80;99.90;;;;;;5094347;28;20258;-54
2021/12/09 03:54:24;;;;;;;33.95;20.33;;;5.80;99.90;;;;;;5097656;28;20354;-57
2021/12/09 03:56:51;;;;;;;31.35;17.27;;;5.60;99.90;;;;;;5097616;28;20089;-53
2021/12/09 03:59:17;;;;;;;27.17;16.30;;;5.40;99.90;;;;;;5097400;28;20470;-56
2021/12/09 04:01:44;;;;;;;35.40;19.48;;;5.50;99.90;;;;;;5097245;28;20045;-57
2021/12/09 04:04:12;;;;;;;35.40;18.05;;;5.60;99.90;;;;;;5097423;28;20020;-57
2021/12/09 04:06:38;;;;;;;27.95;14.65;;;5.70;99.90;;;;;;5097305;28;20030;-57
2021/12/09 04:09:07;;;;;;;23.98;14.00;;;5.70;99.90;;;;;;5097393;28;20024;-56
2021/12/09 04:11:33;;;;;;;24.90;13.50;;;5.90;99.90;;;;;;5097075;28;20024;-55
2021/12/09 04:13:59;;;;;;;26.42;14.18;;;5.90;99.90;;;;;;5097073;28;20470;-54
2021/12/09 04:16:24;;;;;;;30.48;18.60;;;6.00;99.90;;;;;;5096894;28;20119;-57
2021/12/09 04:18:50;;;;;;;21.75;13.07;;;6.10;99.90;;;;;;5097282;28;20104;-58
2021/12/09 04:21:16;;;;;;;25.70;15.63;;;6.10;99.90;;;;;;5096791;28;20065;-58
2021/12/09 04:23:42;;;;;;;24.98;14.88;;;6.20;99.90;;;;;;5096874;28;20123;-58
2021/12/09 04:26:08;;;;;;;25.48;14.73;;;6.20;99.90;;;;;;5096690;28;20031;-56
2021/12/09 04:28:35;;;;;;;22.20;13.00;;;6.20;99.90;;;;;;5096827;28;20051;-58
2021/12/09 04:31:01;;;;;;;20.02;11.70;;;6.20;99.90;;;;;;5096785;28;20024;-57
2021/12/09 04:33:29;;;;;;;18.73;11.73;;;6.30;99.90;;;;;;5096921;28;20034;-56
2021/12/09 04:35:55;;;;;;;22.35;12.73;;;6.30;99.90;;;;;;5096289;28;20094;-57
2021/12/09 04:38:21;;;;;;;26.85;15.98;;;6.30;99.90;;;;;;5096923;28;20032;-58
2021/12/09 04:40:47;;;;;;;24.23;13.75;;;6.30;99.90;;;;;;5096817;28;20518;-57
2021/12/09 04:43:13;;;;;;;28.98;16.48;;;6.40;99.90;;;;;;5096637;28;20016;-58
2021/12/09 04:45:40;;;;;;;30.42;16.92;;;6.30;99.90;;;;;;5096456;28;20374;-57
2021/12/09 04:48:07;;;;;;;37.30;20.90;;;6.30;99.90;;;;;;5096641;28;20074;-58
2021/12/09 04:50:33;;;;;;;29.50;18.42;;;6.20;99.90;;;;;;5096447;28;20020;-58
2021/12/09 04:52:59;;;;;;;35.88;20.52;;;6.10;99.90;;;;;;5096343;28;20027;-57
2021/12/09 04:55:25;;;;;;;28.42;16.63;;;6.00;99.90;;;;;;5096175;28;20031;-57
2021/12/09 04:57:51;;;;;;;31.10;18.20;;;6.00;99.90;;;;;;5096415;28;20020;-57
2021/12/09 05:00:20;;;;;;;46.58;27.00;;;6.10;99.90;;;;;;5096292;28;20107;-57
2021/12/09 05:05:30;;;;;;;29.48;16.67;;;6.00;99.90;;;;;;5095944;28;20111;-57
2021/12/09 05:07:56;;;;;;;30.98;17.50;;;6.00;99.90;;;;;;5096069;28;20058;-57
2021/12/09 05:10:22;;;;;;;35.88;19.70;;;6.10;99.90;;;;;;5095903;28;20515;-56
2021/12/09 05:12:48;;;;;;;35.22;20.48;;;6.10;99.90;;;;;;5095997;28;20019;-55
2021/12/09 05:15:13;;;;;;;39.15;22.38;;;6.10;99.90;;;;;;5095839;28;20016;-52
2021/12/09 05:17:39;;;;;;;41.53;22.02;;;6.20;99.90;;;;;;5096064;28;20035;-56
2021/12/09 05:20:06;;;;;;;39.25;20.83;;;6.20;99.90;;;;;;5095775;28;20466;-56
2021/12/09 05:22:31;;;;;;;39.95;21.60;;;6.20;99.90;;;;;;5095702;28;20489;-56
2021/12/09 05:24:57;;;;;;;34.53;21.27;;;6.20;99.90;;;;;;5095623;28;20016;-57
2021/12/09 05:27:23;;;;;;;45.63;25.25;;;6.20;99.90;;;;;;5095655;28;20458;-53
2021/12/09 05:30:03;;;;;;;40.15;22.40;;;6.20;99.90;;;;;;5095896;28;20072;-58
2021/12/09 05:32:29;;;;;;;39.78;22.17;;;6.20;99.90;;;;;;5095784;28;20038;-55
2021/12/09 05:34:56;;;;;;;45.60;23.30;;;6.20;99.90;;;;;;5095012;28;20024;-58
2021/12/09 05:37:24;;;;;;;46.40;25.58;;;6.20;99.90;;;;;;5095405;28;20063;-57
2021/12/09 05:39:52;;;;;;;45.00;25.17;;;6.20;99.90;;;;;;5095322;28;20035;-57
2021/12/09 05:42:19;;;;;;;50.30;27.70;;;6.00;99.90;;;;;;5095592;28;20020;-57
2021/12/09 05:44:46;;;;;;;58.67;32.60;;;6.00;99.90;;;;;;5095441;28;20020;-58
2021/12/09 05:47:12;;;;;;;59.15;29.80;;;5.90;99.90;;;;;;5095234;28;20031;-56
2021/12/09 05:49:41;;;;;;;55.67;31.23;;;5.90;99.90;;;;;;5095337;28;20070;-56
2021/12/09 05:52:08;;;;;;;81.18;43.88;;;6.00;99.90;;;;;;5095516;28;20107;-58
2021/12/09 05:54:34;;;;;;;80.43;42.35;;;6.00;99.90;;;;;;5094985;28;20024;-56
2021/12/09 05:57:00;;;;;;;78.43;41.28;;;6.00;99.90;;;;;;5100109;28;20047;-58
2021/12/09 05:59:27;;;;;;;84.13;44.95;;;6.00;99.90;;;;;;5114306;28;20492;-61
2021/12/09 06:01:53;;;;;;;79.53;41.90;;;5.80;99.90;;;;;;5107809;28;20389;-62
2021/12/09 06:04:21;;;;;;;68.97;38.03;;;5.90;99.90;;;;;;5113957;28;20058;-59
2021/12/09 06:06:47;;;;;;;61.53;34.03;;;6.00;99.90;;;;;;5113097;28;20028;-60
2021/12/09 06:09:13;;;;;;;71.55;39.13;;;6.10;99.90;;;;;;5101503;28;20057;-61
2021/12/09 06:11:40;;;;;;;118.05;62.65;;;6.20;99.90;;;;;;5100406;28;20116;-60
2021/12/09 06:14:07;;;;;;;109.80;58.22;;;6.20;99.90;;;;;;5112966;28;20041;-62
2021/12/09 06:16:34;;;;;;;79.07;44.67;;;6.10;99.90;;;;;;5111933;28;20035;-61
2021/12/09 06:19:01;;;;;;;71.00;40.10;;;6.10;99.90;;;;;;5111965;28;20012;-61
2021/12/09 06:21:28;;;;;;;97.78;53.22;;;6.30;99.90;;;;;;5114049;28;20096;-61
2021/12/09 06:23:55;;;;;;;95.68;50.90;;;6.50;99.90;;;;;;5114148;28;20615;-60
2021/12/09 06:26:21;;;;;;;77.75;42.88;;;6.60;99.90;;;;;;5107212;28;20043;-60
2021/12/09 06:28:47;;;;;;;80.70;46.15;;;6.80;99.90;;;;;;5092581;28;20185;-61
2021/12/09 06:31:13;;;;;;;125.85;63.53;;;6.90;99.90;;;;;;5092465;28;20521;-61
2021/12/09 06:33:39;;;;;;;236.05;114.90;;;6.90;99.90;;;;;;5092589;28;20497;-61
2021/12/09 06:36:06;;;;;;;199.00;102.25;;;6.90;99.90;;;;;;5092762;28;20056;-61
2021/12/09 06:38:32;;;;;;;183.73;95.55;;;6.90;99.90;;;;;;5092754;28;20020;-61
2021/12/09 06:40:58;;;;;;;166.82;87.43;;;6.80;99.90;;;;;;5093442;28;20794;-60
2021/12/09 06:43:24;;;;;;;153.05;82.25;;;6.80;99.90;;;;;;5092408;28;20141;-61
2021/12/09 06:45:55;;;;;;;146.73;74.18;;;6.80;99.90;;;;;;5091281;28;20040;-62
2021/12/09 06:48:21;;;;;;;130.93;69.82;;;6.80;99.90;;;;;;5102658;28;20039;-61
2021/12/09 06:50:47;;;;;;;125.82;64.40;;;6.80;99.90;;;;;;5094466;28;20027;-57
2021/12/09 06:53:14;;;;;;;100.97;52.45;;;6.80;99.90;;;;;;5091670;28;20024;-58
2021/12/09 06:55:42;;;;;;;85.18;44.08;;;6.90;99.90;;;;;;5095913;28;20048;-55
2021/12/09 06:58:09;;;;;;;68.13;36.00;;;7.10;99.90;;;;;;5098562;28;20031;-52
2021/12/09 07:00:46;;;;;;;59.13;30.00;;;7.40;99.90;;;;;;5098537;28;20114;-56
2021/12/09 07:03:17;;;;;;;41.88;21.63;;;7.70;99.90;;;;;;5103649;28;20050;-58
2021/12/09 07:05:45;;;;;;;28.92;15.90;;;8.10;99.90;;;;;;5106991;28;20028;-63
2021/12/09 07:08:11;;;;;;;22.00;11.52;;;8.50;99.90;;;;;;5105686;28;20760;-54
2021/12/09 07:10:37;;;;;;;18.25;9.43;;;8.80;99.90;;;;;;5099224;28;20028;-57
2021/12/09 07:13:05;;;;;;;19.30;9.75;;;9.00;99.90;;;;;;5098287;28;20015;-57
2021/12/09 07:15:31;;;;;;;23.63;11.68;;;9.20;99.90;;;;;;5109468;28;20036;-54
2021/12/09 07:17:58;;;;;;;15.57;8.80;;;9.40;99.90;;;;;;5100073;28;20023;-51
2021/12/09 07:20:24;;;;;;;12.98;7.70;;;9.60;99.90;;;;;;5100336;28;20098;-57
2021/12/09 07:22:51;;;;;;;14.10;7.70;;;9.70;99.90;;;;;;5091348;28;20085;-62
2021/12/09 07:25:18;;;;;;;12.15;6.65;;;9.90;99.90;;;;;;5095408;28;20028;-63
2021/12/09 07:27:45;;;;;;;12.90;6.97;;;10.00;99.90;;;;;;5106194;28;20077;-57
2021/12/09 07:30:12;;;;;;;12.35;7.05;;;10.20;99.90;;;;;;5111478;28;20035;-68
2021/12/09 07:32:37;;;;;;;14.90;8.23;;;10.40;99.90;;;;;;5111589;28;20631;-56
2021/12/09 07:35:05;;;;;;;15.02;8.75;;;10.50;99.90;;;;;;5110308;28;20048;-57
2021/12/09 07:37:32;;;;;;;15.32;8.20;;;10.70;99.90;;;;;;5106255;28;20504;-58
2021/12/09 07:39:58;;;;;;;16.20;9.13;;;10.80;99.90;;;;;;5108909;28;20046;-60
2021/12/09 07:42:24;;;;;;;13.95;8.55;;;11.00;99.90;;;;;;5103404;28;20020;-58
2021/12/09 07:44:50;;;;;;;16.70;9.32;;;11.30;99.90;;;;;;5089696;28;20020;-62
2021/12/09 07:47:17;;;;;;;18.17;10.82;;;11.40;99.40;;;;;;5090868;28;20420;-57
2021/12/09 07:49:44;;;;;;;18.33;10.80;;;11.60;98.00;;;;;;5094219;28;20403;-59
2021/12/09 07:52:10;;;;;;;16.33;9.73;;;11.60;97.90;;;;;;5112602;28;20081;-62
2021/12/09 07:54:35;;;;;;;12.95;7.70;;;11.50;97.40;;;;;;5110334;28;20028;-58
2021/12/09 07:57:01;;;;;;;17.40;8.55;;;11.70;97.20;;;;;;5112473;28;20031;-57
2021/12/09 07:59:27;;;;;;;14.05;7.50;;;11.90;96.50;;;;;;5112045;28;20028;-59
2021/12/09 08:01:53;;;;;;;11.48;7.07;;;12.10;96.00;;;;;;5112083;28;20020;-59
2021/12/09 08:04:18;;;;;;;8.27;5.35;;;12.10;95.70;;;;;;5112733;28;20416;-56
2021/12/09 08:06:44;;;;;;;7.72;4.38;;;12.10;94.90;;;;;;5112091;28;20505;-59
2021/12/09 08:09:10;;;;;;;19.33;9.27;;;12.00;95.20;;;;;;5111472;28;20027;-60
2021/12/09 08:11:38;;;;;;;15.70;7.13;;;12.00;95.20;;;;;;5109298;28;20525;-58
2021/12/09 08:14:06;;;;;;;8.55;4.60;;;11.90;95.30;;;;;;5110544;28;20161;-61
2021/12/09 08:16:37;;;;;;;12.95;6.60;;;11.90;96.10;;;;;;5111620;28;20076;-60
2021/12/09 08:19:07;;;;;;;15.05;8.10;;;11.90;95.30;;;;;;5108707;28;20085;-57
2021/12/09 08:21:35;;;;;;;14.60;7.68;;;12.00;95.20;;;;;;5099760;28;20091;-59
2021/12/09 08:24:02;;;;;;;7.03;4.38;;;12.00;95.90;;;;;;5112214;28;20046;-57
2021/12/09 08:26:28;;;;;;;11.38;6.78;;;12.00;94.80;;;;;;5110859;28;20758;-62
2021/12/09 08:28:54;;;;;;;6.53;4.13;;;12.10;95.60;;;;;;5108359;28;20012;-62
2021/12/09 08:31:20;;;;;;;10.88;6.63;;;12.10;94.80;;;;;;5110878;28;20481;-64
2021/12/09 08:33:46;;;;;;;11.88;6.13;;;12.10;95.80;;;;;;5108393;28;20103;-65
2021/12/09 08:36:12;;;;;;;11.77;6.00;;;12.10;94.90;;;;;;5098742;28;20135;-58
2021/12/09 08:38:38;;;;;;;14.60;8.90;;;12.10;96.10;;;;;;5097168;28;20069;-61
2021/12/09 08:41:04;;;;;;;8.50;4.50;;;12.20;94.80;;;;;;5106318;28;20031;-58
2021/12/09 08:43:30;;;;;;;9.63;6.28;;;12.10;94.40;;;;;;5115023;28;20020;-67
2021/12/09 08:45:56;;;;;;;8.82;5.65;;;12.20;94.60;;;;;;5104911;28;20551;-61
2021/12/09 08:48:24;;;;;;;12.40;6.78;;;12.10;94.90;;;;;;5100817;28;20111;-63
2021/12/09 08:50:50;;;;;;;10.55;6.60;;;12.10;94.80;;;;;;5108642;28;20068;-65
2021/12/09 08:53:19;;;;;;;14.77;9.05;;;12.10;95.60;;;;;;5103088;28;20028;-59
2021/12/09 08:55:45;;;;;;;17.27;8.73;;;12.20;95.20;;;;;;5093208;28;20056;-64
2021/12/09 08:58:12;;;;;;;20.10;10.52;;;12.10;94.90;;;;;;5092641;28;20127;-59
2021/12/09 09:00:39;;;;;;;29.27;17.15;;;12.20;95.30;;;;;;5091692;28;20700;-68
2021/12/09 09:03:05;;;;;;;22.98;14.35;;;12.20;95.10;;;;;;5090981;28;20102;-60
2021/12/09 09:05:35;;;;;;;34.28;19.30;;;12.10;95.70;;;;;;5090480;28;20024;-56
2021/12/09 09:08:01;;;;;;;37.70;22.30;;;12.10;95.20;;;;;;5092478;28;20024;-59
2021/12/09 09:10:28;;;;;;;26.88;14.65;;;12.10;96.00;;;;;;5112351;28;20023;-60
2021/12/09 09:12:55;;;;;;;42.70;22.85;;;12.10;96.50;;;;;;5107155;28;20019;-58
2021/12/09 09:15:23;;;;;;;18.45;12.07;;;12.00;98.10;;;;;;5096649;28;20339;-56
2021/12/09 09:17:50;;;;;;;53.88;29.73;;;11.90;97.80;;;;;;5110758;28;20015;-55
2021/12/09 09:20:18;;;;;;;42.40;23.80;;;11.80;98.50;;;;;;5111603;28;20493;-60
2021/12/09 09:22:44;;;;;;;39.20;21.80;;;11.80;98.50;;;;;;5112250;28;20031;-61
2021/12/09 09:25:20;;;;;;;32.47;19.45;;;11.80;99.90;;;;;;5111219;28;20062;-62
2021/12/09 09:27:47;;;;;;;41.05;23.88;;;11.80;99.90;;;;;;5111467;28;20567;-61
2021/12/09 09:30:17;;;;;;;17.23;10.35;;;11.90;99.70;;;;;;5113879;28;20113;-58
2021/12/09 09:32:45;;;;;;;12.02;8.15;;;11.90;98.10;;;;;;5114136;28;20080;-56
2021/12/09 09:35:11;;;;;;;34.25;20.58;;;11.90;98.70;;;;;;5115089;28;20054;-60
2021/12/09 09:37:37;;;;;;;32.22;17.45;;;11.90;99.70;;;;;;5112735;28;20059;-58
2021/12/09 09:40:08;;;;;;;23.95;14.52;;;12.00;99.80;;;;;;5113392;28;20015;-59
2021/12/09 09:42:59;;;;;;;39.70;24.30;;;11.90;99.50;;;;;;5112418;28;20046;-61
2021/12/09 09:45:21;;;;;;;65.07;36.58;;;12.00;99.30;;;;;;5111772;28;20398;-55
2021/12/09 09:47:48;;;;;;;34.95;21.05;;;12.00;99.90;;;;;;5111374;28;20170;-56
2021/12/09 09:50:14;;;;;;;30.73;17.45;;;12.00;99.90;;;;;;5098076;28;20077;-58
2021/12/09 09:52:40;;;;;;;22.92;13.77;;;11.90;99.90;;;;;;5091639;28;20478;-54
2021/12/09 09:55:09;;;;;;;21.60;13.32;;;11.80;99.90;;;;;;5107653;28;20055;-58
2021/12/09 09:57:36;;;;;;;25.52;15.50;;;11.80;99.90;;;;;;5112914;28;20429;-60
2021/12/09 10:00:08;;;;;;;30.95;19.73;;;11.80;99.90;;;;;;5113018;28;20480;-53
2021/12/09 10:02:34;;;;;;;32.83;20.92;;;11.80;99.90;;;;;;5112870;28;20019;-56
2021/12/09 10:05:02;;;;;;;38.10;22.42;;;11.80;99.90;;;;;;5111618;28;20496;-55
2021/12/09 10:07:30;;;;;;;39.15;22.10;;;11.80;99.90;;;;;;5112231;28;20055;-54
2021/12/09 10:09:56;;;;;;;38.33;22.95;;;11.70;99.90;;;;;;5110488;28;20525;-64
2021/12/09 10:12:22;;;;;;;41.22;24.20;;;11.80;99.90;;;;;;5109394;28;20111;-61
2021/12/09 10:14:53;;;;;;;35.28;21.65;;;11.80;99.90;;;;;;5111008;28;20019;-61
2021/12/09 10:17:26;;;;;;;35.15;21.50;;;11.80;99.90;;;;;;5110700;28;20045;-63
2021/12/09 10:20:01;;;;;;;41.38;24.45;;;11.90;99.90;;;;;;5107823;28;20031;-58
2021/12/09 10:22:34;;;;;;;37.10;22.83;;;12.00;99.90;;;;;;5112699;28;20019;-59
2021/12/09 10:25:14;;;;;;;35.30;20.73;;;12.00;99.90;;;;;;5110812;28;20023;-60
2021/12/09 10:27:45;;;;;;;32.72;20.10;;;12.10;99.90;;;;;;5100996;28;20024;-59
2021/12/09 10:30:17;;;;;;;36.33;21.63;;;12.20;99.90;;;;;;5093811;28;20032;-59
2021/12/09 10:32:45;;;;;;;51.97;29.63;;;12.30;99.90;;;;;;5105970;28;20024;-60
2021/12/09 10:35:16;;;;;;;59.53;32.38;;;12.30;99.90;;;;;;5096520;28;20127;-58
2021/12/09 10:37:43;;;;;;;96.63;50.90;;;12.40;99.90;;;;;;5112141;28;20031;-56
2021/12/09 10:40:17;;;;;;;89.32;49.72;;;12.30;99.90;;;;;;5109666;28;20500;-57
2021/12/09 10:42:53;;;;;;;75.43;40.97;;;12.20;99.90;;;;;;5097979;28;20513;-53
2021/12/09 10:45:28;;;;;;;85.43;48.63;;;12.20;99.90;;;;;;5093691;28;20039;-58
2021/12/09 10:48:11;;;;;;;76.18;42.47;;;12.20;99.90;;;;;;5099133;28;20035;-55
2021/12/09 10:51:07;;;;;;;67.47;38.80;;;12.10;99.90;;;;;;5111236;28;20031;-58
2021/12/09 10:56:09;;;;;;;64.65;37.25;;;12.30;99.90;;;;;;5109869;28;20071;-58
2021/12/09 10:58:39;;;;;;;67.70;38.75;;;12.40;99.90;;;;;;5104549;28;20288;-58
2021/12/09 11:01:09;;;;;;;55.08;32.47;;;12.40;99.90;;;;;;5095061;28;20016;-56
2021/12/09 11:03:37;;;;;;;59.03;34.35;;;12.40;99.90;;;;;;5099727;28;20094;-56
2021/12/09 11:06:10;;;;;;;44.35;28.05;;;12.40;99.90;;;;;;5110237;28;20020;-53
2021/12/09 11:08:43;;;;;;;34.27;20.33;;;12.40;99.90;;;;;;5101786;28;20023;-59
2021/12/09 11:11:16;;;;;;;37.10;22.05;;;12.50;99.90;;;;;;5113311;28;20054;-60
2021/12/09 11:13:57;;;;;;;33.55;21.70;;;12.60;99.90;;;;;;5114085;28;20047;-56
2021/12/09 11:16:28;;;;;;;98.95;51.67;;;12.70;99.90;;;;;;5095886;28;20058;-55
2021/12/09 11:19:18;;;;;;;76.10;46.55;;;12.70;99.90;;;;;;5090200;28;20111;-58
2021/12/09 11:21:56;;;;;;;85.55;49.13;;;12.50;99.90;;;;;;5090304;28;20020;-58
2021/12/09 11:24:23;;;;;;;95.63;58.63;;;12.40;99.90;;;;;;5091505;28;20017;-59
2021/12/09 11:27:00;;;;;;;117.10;66.05;;;12.10;99.90;;;;;;5091943;28;20024;-53
2021/12/09 11:29:42;;;;;;;106.05;60.95;;;11.80;99.90;;;;;;5092939;28;20073;-57
2021/12/09 11:34:48;;;;;;;101.50;59.63;;;11.70;99.90;;;;;;5101352;28;20047;-56
2021/12/09 11:37:36;;;;;;;102.10;58.13;;;11.50;99.90;;;;;;5109391;28;20093;-57
2021/12/09 11:40:06;;;;;;;134.25;79.55;;;11.30;99.90;;;;;;5102716;28;20423;-57
2021/12/09 11:42:44;;;;;;;145.75;88.25;;;11.20;99.90;;;;;;5094631;28;20023;-57
2021/12/09 11:45:17;;;;;;;125.13;72.43;;;11.20;99.90;;;;;;5094959;28;20073;-53
2021/12/09 11:47:45;;;;;;;120.63;75.35;;;11.20;99.90;;;;;;5100417;28;20127;-56
2021/12/09 11:50:15;;;;;;;86.63;51.95;;;11.00;99.90;;;;;;5098090;28;20094;-49
2021/12/09 11:52:43;;;;;;;84.55;52.20;;;11.00;99.90;;;;;;5101557;28;20427;-51
2021/12/09 11:55:13;;;;;;;83.72;51.08;;;11.10;99.90;;;;;;5103205;28;20103;-55
2021/12/09 11:57:47;;;;;;;77.57;47.72;;;11.30;99.90;;;;;;5100079;28;20481;-58
2021/12/09 12:26:54;;;;;;;52.60;31.75;;;13.80;99.90;;;;;;5094357;28;20061;-56
2021/12/09 12:29:55;;;;;;;48.75;29.80;;;13.70;99.90;;;;;;5102748;28;20039;-54
2021/12/09 12:40:13;;;;;;;42.92;25.17;;;13.50;99.90;;;;;;5113047;28;20106;-55
2021/12/09 12:42:50;;;;;;;40.63;24.17;;;13.50;99.90;;;;;;5111538;28;20024;-52
2021/12/09 12:51:20;;;;;;;35.70;24.17;;;13.50;99.90;;;;;;5115337;28;20028;-58
2021/12/09 12:53:57;;;;;;;58.35;34.22;;;13.50;99.90;;;;;;5114811;28;20535;-57
2021/12/09 12:56:38;;;;;;;63.63;36.20;;;13.40;99.90;;;;;;5112470;28;20500;-56
2021/12/09 12:59:15;;;;;;;74.40;42.97;;;13.30;99.90;;;;;;5099886;28;20028;-59
2021/12/09 13:10:22;;;;;;;80.25;45.85;;;12.90;99.90;;;;;;5100889;28;20036;-58
2021/12/09 13:13:32;;;;;;;81.53;46.67;;;12.80;99.90;;;;;;5109501;28;20039;-61
2021/12/09 13:19:30;;;;;;;83.47;51.00;;;12.30;99.90;;;;;;5084777;28;20042;-59
2021/12/09 13:22:08;;;;;;;96.97;60.67;;;12.00;99.90;;;;;;5114144;28;20027;-60
2021/12/09 13:24:45;;;;;;;106.63;62.25;;;11.90;99.90;;;;;;5113628;28;20024;-57
2021/12/09 13:46:56;;;;;;;111.40;68.18;;;10.40;99.90;;;;;;5115631;28;20116;-60
2021/12/09 13:49:37;;;;;;;104.78;63.92;;;10.50;99.90;;;;;;5115797;28;20027;-59
2021/12/09 13:55:25;;;;;;;96.10;56.67;;;10.30;99.90;;;;;;5115629;28;20024;-56
2021/12/09 13:57:53;;;;;;;;;;;10.00;99.90;;;;;;5115880;28;20081;-59
2021/12/09 14:00:24;;;;;;;96.50;51.88;;;9.90;99.90;;;;;;5115780;28;19910;-56
2021/12/09 14:03:01;;;;;;;129.98;69.50;;;9.90;99.90;;;;;;5115411;28;20024;-58
2021/12/09 14:05:39;;;;;;;107.93;58.05;;;9.90;99.90;;;;;;5115629;28;20026;-54